Time;durP1;ratioP1;P1;durP2;ratioP2;P2;SDS_P1;SDS_P2;PMS_P1;PMS_P2;Temp;Humidity;BMP_temperature;BMP_pressure;BME280_temperature;BME280_humidity;BME280_pressure;Samples;Min_cycle;Max_cycle;Signal;HPM_P1;HPM_P2
2022/01/19 00:00:18;;;;;;;0.60;0.60;;;-1.60;99.90;;;;;;5046704;28;20315;-69
2022/01/19 00:02:44;;;;;;;1.38;1.27;;;-1.60;99.90;;;;;;5046947;28;20656;-70
2022/01/19 00:05:11;;;;;;;0.60;0.60;;;-1.60;99.90;;;;;;5046251;28;20194;-70
2022/01/19 00:07:37;;;;;;;0.70;0.70;;;-1.60;99.90;;;;;;5043690;28;20553;-70
2022/01/19 00:10:09;;;;;;;0.70;0.70;;;-1.50;99.90;;;;;;5044684;28;20289;-69
2022/01/19 00:12:36;;;;;;;0.60;0.60;;;-1.40;99.90;;;;;;5043499;28;20197;-69
2022/01/19 00:15:05;;;;;;;0.70;0.70;;;-1.30;99.90;;;;;;5046059;28;20206;-68
2022/01/19 00:17:30;;;;;;;0.60;0.60;;;-1.30;99.90;;;;;;5045830;28;20209;-70
2022/01/19 00:19:56;;;;;;;0.65;0.65;;;-1.30;99.90;;;;;;5040298;28;20209;-68
2022/01/19 00:22:21;;;;;;;0.77;0.77;;;-1.30;99.90;;;;;;5043593;28;20284;-69
2022/01/19 00:24:47;;;;;;;0.55;0.55;;;-1.10;99.90;;;;;;5047038;28;20206;-68
2022/01/19 00:27:13;;;;;;;0.70;0.70;;;-1.00;99.90;;;;;;5043583;28;20224;-70
2022/01/19 00:29:39;;;;;;;0.60;0.60;;;-1.10;99.90;;;;;;5046836;28;20210;-68
2022/01/19 00:32:05;;;;;;;0.70;0.70;;;-1.10;99.90;;;;;;5046973;28;20198;-68
2022/01/19 00:34:31;;;;;;;0.60;0.60;;;-1.10;99.90;;;;;;5049619;28;20206;-70
2022/01/19 00:36:56;;;;;;;0.73;0.73;;;-1.10;99.90;;;;;;5035288;28;20579;-68
2022/01/19 00:39:30;;;;;;;0.70;0.70;;;-1.10;99.90;;;;;;5033121;28;20264;-68
2022/01/19 00:41:57;;;;;;;0.57;0.57;;;-1.20;99.90;;;;;;5052436;28;20208;-68
2022/01/19 00:44:22;;;;;;;1.20;1.15;;;-1.20;99.90;;;;;;5050121;28;20251;-68
2022/01/19 00:46:48;;;;;;;0.60;0.60;;;-1.20;99.90;;;;;;5051197;28;20300;-69
2022/01/19 00:49:14;;;;;;;0.60;0.60;;;-1.30;99.90;;;;;;5051468;28;20201;-68
2022/01/19 00:51:40;;;;;;;0.65;0.65;;;-1.40;99.90;;;;;;5047194;28;20359;-68
2022/01/19 00:54:06;;;;;;;1.23;1.08;;;-1.40;99.90;;;;;;5050724;28;20682;-68
2022/01/19 00:56:34;;;;;;;0.70;0.70;;;-1.30;99.90;;;;;;5041465;28;20202;-68
2022/01/19 00:59:00;;;;;;;1.98;1.75;;;-1.40;99.90;;;;;;5043736;28;20209;-68
2022/01/19 01:01:26;;;;;;;1.38;1.27;;;-1.40;99.90;;;;;;5049967;28;20252;-68
2022/01/19 01:03:52;;;;;;;0.73;0.73;;;-1.40;99.90;;;;;;5049470;28;20201;-69
2022/01/19 01:06:18;;;;;;;0.70;0.70;;;-1.40;99.90;;;;;;5050522;28;20314;-68
2022/01/19 01:08:44;;;;;;;0.80;0.80;;;-1.50;99.90;;;;;;5049409;28;20202;-68
2022/01/19 01:11:10;;;;;;;0.60;0.60;;;-1.40;99.90;;;;;;5047914;28;20212;-68
2022/01/19 01:16:34;;;;;;;0.70;0.70;;;-1.40;99.90;;;;;;5045251;28;20310;-68
2022/01/19 01:19:01;;;;;;;1.33;1.25;;;-1.40;99.90;;;;;;5045976;28;20209;-68
2022/01/19 01:21:27;;;;;;;0.60;0.60;;;-1.40;99.90;;;;;;5048857;28;20688;-68
2022/01/19 01:23:53;;;;;;;0.60;0.60;;;-1.40;99.90;;;;;;5049122;28;20283;-68
2022/01/19 01:26:19;;;;;;;0.70;0.70;;;-1.20;99.90;;;;;;5048892;28;20335;-68
2022/01/19 01:28:44;;;;;;;0.57;0.57;;;-1.30;99.90;;;;;;5049073;28;20296;-68
2022/01/19 01:31:10;;;;;;;0.85;0.85;;;-1.40;99.90;;;;;;5049102;28;20210;-68
2022/01/19 01:33:37;;;;;;;0.70;0.70;;;-1.40;99.90;;;;;;5048735;28;20224;-68
2022/01/19 01:36:03;;;;;;;0.60;0.60;;;-1.40;99.90;;;;;;5046269;28;20210;-68
2022/01/19 01:38:29;;;;;;;0.60;0.60;;;-1.30;99.90;;;;;;5047942;28;20289;-68
2022/01/19 01:40:55;;;;;;;0.50;0.50;;;-1.30;99.90;;;;;;5048271;28;20301;-68
2022/01/19 01:43:21;;;;;;;0.93;0.93;;;-1.20;99.90;;;;;;5050740;28;20198;-68
2022/01/19 01:45:52;;;;;;;0.85;0.85;;;-1.20;99.90;;;;;;5048877;28;20205;-68
2022/01/19 01:48:20;;;;;;;0.70;0.70;;;-1.30;99.90;;;;;;5047192;28;20240;-68
2022/01/19 01:53:33;;;;;;;0.70;0.70;;;-1.20;99.90;;;;;;5049554;28;20274;-69
2022/01/19 01:56:13;;;;;;;0.73;0.73;;;-1.10;99.90;;;;;;5043763;28;20202;-68
2022/01/19 01:58:42;;;;;;;0.80;0.80;;;-1.10;99.90;;;;;;5050684;28;20209;-70
2022/01/19 02:01:13;;;;;;;0.60;0.60;;;-1.00;99.90;;;;;;5048332;28;20229;-71
2022/01/19 02:03:45;;;;;;;0.70;0.70;;;-1.00;99.90;;;;;;5048973;28;20599;-71
2022/01/19 02:08:49;;;;;;;0.70;0.70;;;-1.00;99.90;;;;;;5048233;28;20567;-71
2022/01/19 02:23:07;;;;;;;0.60;0.60;;;-1.20;99.90;;;;;;5019048;28;20217;-71
2022/01/19 02:25:39;;;;;;;0.63;0.63;;;-1.00;99.90;;;;;;5020068;28;20216;-71
2022/01/19 02:41:36;;;;;;;0.75;0.75;;;-0.90;99.90;;;;;;5009869;28;20569;-71
2022/01/19 02:44:03;;;;;;;0.82;0.82;;;-0.90;99.90;;;;;;5011162;28;20199;-71
2022/01/19 02:46:53;;;;;;;0.60;0.60;;;-0.90;99.90;;;;;;5011023;28;20202;-71
2022/01/19 02:49:20;;;;;;;12.18;2.20;;;-0.90;99.90;;;;;;5043581;28;20227;-71
2022/01/19 02:51:51;;;;;;;0.60;0.60;;;-0.90;99.90;;;;;;5045037;28;20206;-71
2022/01/19 02:54:22;;;;;;;0.70;0.70;;;-1.00;99.90;;;;;;5048588;28;20536;-71
2022/01/19 02:56:51;;;;;;;0.70;0.70;;;-1.10;99.90;;;;;;5036480;28;20209;-71
2022/01/19 02:59:25;;;;;;;0.70;0.70;;;-1.10;99.90;;;;;;5040391;28;20205;-71
2022/01/19 03:10:04;;;;;;;0.80;0.80;;;-0.80;99.90;;;;;;5047229;28;20216;-71
2022/01/19 03:12:30;;;;;;;0.60;0.60;;;-0.80;99.90;;;;;;5046210;28;20205;-71
2022/01/19 03:14:56;;;;;;;4.82;3.03;;;-0.80;99.90;;;;;;5048240;28;20197;-71
2022/01/19 03:17:22;;;;;;;1.40;1.33;;;-0.90;99.90;;;;;;5047970;28;20208;-71
2022/01/19 03:19:48;;;;;;;0.60;0.60;;;-0.80;99.90;;;;;;5048068;28;20229;-71
2022/01/19 03:22:16;;;;;;;6.25;1.25;;;-0.70;99.90;;;;;;5045442;28;20205;-71
2022/01/19 03:24:49;;;;;;;0.90;0.90;;;-0.50;99.90;;;;;;5047778;28;20201;-71
2022/01/19 03:27:15;;;;;;;0.70;0.70;;;-0.50;99.90;;;;;;5029876;28;20739;-71
2022/01/19 03:29:41;;;;;;;0.60;0.60;;;-0.50;99.90;;;;;;5022485;28;20292;-71
2022/01/19 03:32:07;;;;;;;0.85;0.85;;;-0.30;99.90;;;;;;5039919;28;20211;-71
2022/01/19 03:34:32;;;;;;;0.70;0.70;;;-0.30;99.90;;;;;;5046448;28;20648;-71
2022/01/19 03:36:58;;;;;;;0.68;0.68;;;-0.20;99.90;;;;;;5047770;28;20347;-71
2022/01/19 03:39:24;;;;;;;0.60;0.60;;;-0.10;99.90;;;;;;5046555;28;20547;-71
2022/01/19 03:41:49;;;;;;;1.13;1.02;;;-0.10;99.90;;;;;;5047464;28;20587;-71
2022/01/19 03:44:15;;;;;;;0.70;0.70;;;-0.20;99.90;;;;;;5045721;28;20332;-71
2022/01/19 03:46:54;;;;;;;0.80;0.80;;;-0.30;99.90;;;;;;5045508;28;20202;-71
2022/01/19 03:49:24;;;;;;;0.63;0.63;;;-0.40;99.90;;;;;;5046732;28;20679;-71
2022/01/19 03:51:52;;;;;;;0.80;0.80;;;-0.30;99.90;;;;;;5047797;28;20277;-71
2022/01/19 03:54:18;;;;;;;0.65;0.65;;;-0.10;99.90;;;;;;5046478;28;20678;-71
2022/01/19 03:56:44;;;;;;;0.60;0.60;;;-0.20;99.90;;;;;;5039657;28;20546;-71
2022/01/19 03:59:10;;;;;;;0.70;0.70;;;-0.20;99.90;;;;;;5047606;28;20307;-71
2022/01/19 04:01:35;;;;;;;0.80;0.80;;;-0.10;99.90;;;;;;5034673;28;20329;-71
2022/01/19 04:09:31;;;;;;;1.13;1.10;;;-0.20;99.90;;;;;;5026357;28;20217;-70
2022/01/19 04:11:57;;;;;;;0.60;0.60;;;-0.20;99.90;;;;;;5048817;28;20570;-71
2022/01/19 04:14:23;;;;;;;0.70;0.70;;;-0.30;99.90;;;;;;5047426;28;20205;-71
2022/01/19 04:17:16;;;;;;;1.45;1.35;;;-0.20;99.90;;;;;;5047466;28;20295;-71
2022/01/19 04:19:47;;;;;;;0.60;0.60;;;-0.30;99.90;;;;;;5046423;28;20244;-71
2022/01/19 04:22:18;;;;;;;0.70;0.70;;;-0.30;99.90;;;;;;5047827;28;20197;-71
2022/01/19 04:24:48;;;;;;;0.60;0.60;;;-0.40;99.90;;;;;;5046690;28;20232;-71
2022/01/19 04:29:57;;;;;;;0.70;0.70;;;-0.50;99.90;;;;;;5048496;28;20198;-71
2022/01/19 04:32:41;;;;;;;0.63;0.63;;;-0.60;99.90;;;;;;5048266;28;20209;-71
2022/01/19 04:35:09;;;;;;;0.60;0.60;;;-0.60;99.90;;;;;;5013790;28;20666;-71
2022/01/19 04:47:04;;;;;;;0.80;0.80;;;-0.60;99.90;;;;;;5044760;28;20200;-71
2022/01/19 05:03:23;;;;;;;0.57;0.57;;;-0.60;99.90;;;;;;5044345;28;20287;-71
2022/01/19 05:06:04;;;;;;;0.60;0.60;;;-0.60;99.90;;;;;;5046365;28;20599;-71
2022/01/19 05:08:56;;;;;;;0.60;0.60;;;-0.70;99.90;;;;;;5013172;28;20564;-71
2022/01/19 05:14:06;;;;;;;1.38;1.33;;;-0.70;99.90;;;;;;5045926;28;20220;-71
2022/01/19 05:16:32;;;;;;;0.60;0.60;;;-0.70;99.90;;;;;;5046445;28;20210;-71
2022/01/19 05:18:57;;;;;;;0.63;0.63;;;-0.70;99.90;;;;;;5045678;28;20218;-70
2022/01/19 05:21:23;;;;;;;0.70;0.70;;;-0.40;99.90;;;;;;5047635;28;20756;-72
2022/01/19 05:26:40;;;;;;;0.70;0.70;;;-0.50;99.90;;;;;;5017745;28;20218;-72
2022/01/19 05:29:06;;;;;;;0.60;0.60;;;-0.60;99.90;;;;;;5050837;28;20194;-72
2022/01/19 05:31:32;;;;;;;0.73;0.73;;;-0.60;99.90;;;;;;5051267;28;20197;-72
2022/01/19 05:33:57;;;;;;;0.52;0.52;;;-0.70;99.90;;;;;;5051679;28;20213;-72
2022/01/19 05:36:23;;;;;;;0.70;0.70;;;-0.70;99.90;;;;;;5051153;28;20209;-72
2022/01/19 05:38:49;;;;;;;0.60;0.60;;;-0.50;99.90;;;;;;5050063;28;20700;-73
2022/01/19 05:41:15;;;;;;;0.80;0.80;;;-0.40;99.90;;;;;;5048224;28;20205;-73
2022/01/19 05:43:40;;;;;;;0.60;0.60;;;-0.10;99.90;;;;;;5048655;28;20216;-71
2022/01/19 05:46:06;;;;;;;0.75;0.75;;;0.10;99.90;;;;;;5048683;28;20201;-72
2022/01/19 05:48:32;;;;;;;0.70;0.70;;;0.20;99.90;;;;;;5047971;28;20271;-71
2022/01/19 05:50:57;;;;;;;0.60;0.60;;;0.20;99.90;;;;;;5048766;28;20211;-72
2022/01/19 05:53:23;;;;;;;0.80;0.80;;;0.60;99.90;;;;;;5049554;28;20288;-72
2022/01/19 05:55:49;;;;;;;0.68;0.68;;;0.70;99.90;;;;;;5046007;28;20220;-72
2022/01/19 05:58:15;;;;;;;0.70;0.70;;;0.80;99.90;;;;;;5040568;28;20190;-71
2022/01/19 06:00:41;;;;;;;0.60;0.60;;;1.00;99.90;;;;;;5037609;28;20276;-71
2022/01/19 06:03:07;;;;;;;0.70;0.70;;;1.00;99.90;;;;;;5035706;28;20217;-71
2022/01/19 06:05:33;;;;;;;0.70;0.70;;;1.10;99.90;;;;;;5046331;28;20660;-71
2022/01/19 06:08:17;;;;;;;0.50;0.50;;;1.30;99.90;;;;;;5047542;28;20205;-71
2022/01/19 06:10:44;;;;;;;1.58;1.23;;;1.40;99.90;;;;;;5048311;28;20205;-71
2022/01/19 06:13:11;;;;;;;7.97;3.65;;;1.50;99.90;;;;;;5049400;28;20291;-71
2022/01/19 06:15:37;;;;;;;0.80;0.80;;;1.60;99.90;;;;;;5049017;28;20198;-71
2022/01/19 06:18:03;;;;;;;0.77;0.77;;;1.60;99.90;;;;;;5044699;28;20562;-73
2022/01/19 06:20:29;;;;;;;0.50;0.50;;;1.70;99.90;;;;;;5048069;28;20555;-71
2022/01/19 06:22:55;;;;;;;0.70;0.70;;;1.70;99.90;;;;;;5014572;28;20206;-71
2022/01/19 06:25:20;;;;;;;4.07;1.73;;;1.70;99.90;;;;;;5049511;28;20209;-71
2022/01/19 06:27:46;;;;;;;0.60;0.60;;;1.80;99.90;;;;;;5049494;28;20197;-71
2022/01/19 06:30:13;;;;;;;0.60;0.60;;;2.20;99.90;;;;;;5048263;28;20197;-71
2022/01/19 06:32:39;;;;;;;0.70;0.70;;;2.40;99.90;;;;;;5033167;28;20218;-72
2022/01/19 06:35:07;;;;;;;0.70;0.70;;;2.40;99.90;;;;;;5046640;28;20571;-72
2022/01/19 06:37:32;;;;;;;6.00;2.15;;;2.80;99.90;;;;;;5047430;28;20221;-71
2022/01/19 06:39:58;;;;;;;0.60;0.60;;;3.00;99.90;;;;;;5048955;28;20228;-70
2022/01/19 06:42:24;;;;;;;0.55;0.55;;;3.10;99.90;;;;;;5047247;28;20649;-70
2022/01/19 06:44:49;;;;;;;0.70;0.70;;;3.40;99.90;;;;;;5048754;28;20585;-71
2022/01/19 06:47:16;;;;;;;0.70;0.70;;;3.60;99.90;;;;;;5048736;28;20232;-73
2022/01/19 06:49:41;;;;;;;0.68;0.68;;;3.90;99.90;;;;;;5047494;28;20206;-72
2022/01/19 06:52:07;;;;;;;0.52;0.52;;;3.90;99.90;;;;;;5047104;28;20724;-72
2022/01/19 06:54:33;;;;;;;0.60;0.60;;;4.10;99.90;;;;;;5037689;28;20205;-72
2022/01/19 06:56:58;;;;;;;0.80;0.80;;;4.10;99.90;;;;;;5041476;28;20202;-72
2022/01/19 06:59:24;;;;;;;0.68;0.68;;;4.10;99.90;;;;;;5047060;28;20640;-73
2022/01/19 07:01:50;;;;;;;1.33;1.23;;;4.20;99.90;;;;;;5044897;28;20690;-72
2022/01/19 07:04:17;;;;;;;0.60;0.60;;;4.20;99.90;;;;;;5047399;28;20582;-73
2022/01/19 07:06:42;;;;;;;0.70;0.70;;;4.30;99.90;;;;;;5045815;28;20217;-74
2022/01/19 07:09:09;;;;;;;0.70;0.70;;;4.30;99.90;;;;;;5047906;28;20190;-73
2022/01/19 07:11:38;;;;;;;0.80;0.80;;;4.40;99.90;;;;;;5049576;28;20201;-74
2022/01/19 07:14:04;;;;;;;0.77;0.77;;;4.30;99.90;;;;;;5047421;28;20198;-74
2022/01/19 07:16:30;;;;;;;0.70;0.70;;;4.30;99.90;;;;;;5047901;28;20201;-74
2022/01/19 07:18:56;;;;;;;0.70;0.70;;;4.40;99.90;;;;;;5044501;28;20259;-74
2022/01/19 07:21:22;;;;;;;0.50;0.50;;;4.50;99.90;;;;;;5040179;28;20216;-74
2022/01/19 07:23:48;;;;;;;0.73;0.73;;;4.50;99.90;;;;;;5045855;28;20198;-74
2022/01/19 07:26:13;;;;;;;0.65;0.65;;;4.60;99.90;;;;;;5048270;28;20202;-74
2022/01/19 07:28:39;;;;;;;0.65;0.65;;;4.60;99.90;;;;;;5037268;28;20289;-75
2022/01/19 07:31:05;;;;;;;1.55;1.45;;;4.60;99.90;;;;;;5041367;28;20300;-75
2022/01/19 07:33:31;;;;;;;0.60;0.60;;;4.60;99.90;;;;;;5047221;28;20206;-75
2022/01/19 07:35:57;;;;;;;0.80;0.80;;;4.50;99.90;;;;;;5046949;28;20707;-75
2022/01/19 07:38:23;;;;;;;0.80;0.80;;;4.50;99.90;;;;;;5046540;28;20237;-74
2022/01/19 07:40:50;;;;;;;0.60;0.60;;;4.60;99.90;;;;;;5046630;28;20660;-74
2022/01/19 07:43:16;;;;;;;0.50;0.50;;;4.50;99.90;;;;;;5047042;28;20204;-74
2022/01/19 07:45:41;;;;;;;1.58;1.48;;;4.60;99.90;;;;;;5046556;28;20529;-75
2022/01/19 07:48:07;;;;;;;0.80;0.80;;;4.50;99.90;;;;;;5047764;28;20289;-74
2022/01/19 07:50:33;;;;;;;0.60;0.60;;;4.50;99.90;;;;;;5033635;28;20206;-74
2022/01/19 07:52:59;;;;;;;0.73;0.73;;;4.60;99.90;;;;;;5044045;28;20717;-74
2022/01/19 07:55:25;;;;;;;0.50;0.50;;;4.70;99.90;;;;;;5030102;28;20293;-74
2022/01/19 07:57:51;;;;;;;0.65;0.65;;;4.70;99.90;;;;;;5030878;28;20293;-74
2022/01/19 08:00:18;;;;;;;0.50;0.50;;;4.80;99.90;;;;;;5048797;28;20637;-74
2022/01/19 08:03:09;;;;;;;0.70;0.70;;;4.70;99.90;;;;;;5015588;28;20272;-73
2022/01/19 08:05:36;;;;;;;0.60;0.60;;;4.70;99.90;;;;;;5011597;28;20203;-73
2022/01/19 08:08:02;;;;;;;0.70;0.70;;;4.70;99.90;;;;;;5048036;28;20205;-74
2022/01/19 08:10:30;;;;;;;0.70;0.70;;;4.70;99.90;;;;;;5044652;28;20209;-74
2022/01/19 08:12:59;;;;;;;0.70;0.70;;;4.70;99.90;;;;;;5048503;28;20231;-74
2022/01/19 08:15:25;;;;;;;0.80;0.80;;;4.70;99.90;;;;;;5015277;28;20632;-75
2022/01/19 08:17:51;;;;;;;0.80;0.80;;;4.60;99.90;;;;;;5044497;28;20316;-72
2022/01/19 08:20:18;;;;;;;1.13;1.10;;;4.60;99.90;;;;;;5017829;28;20215;-75
2022/01/19 08:22:44;;;;;;;0.80;0.80;;;4.70;99.90;;;;;;5042068;28;20280;-74
2022/01/19 08:25:10;;;;;;;0.88;0.88;;;4.80;99.90;;;;;;5047353;28;20227;-76
2022/01/19 08:27:36;;;;;;;0.80;0.80;;;4.80;99.90;;;;;;5047116;28;20233;-75
2022/01/19 08:30:05;;;;;;;0.70;0.70;;;4.80;99.90;;;;;;5046979;28;20618;-73
2022/01/19 08:32:31;;;;;;;0.63;0.63;;;5.00;99.90;;;;;;5047072;28;20210;-74
2022/01/19 08:34:56;;;;;;;0.95;0.95;;;5.00;99.90;;;;;;5047459;28;20205;-74
2022/01/19 08:37:22;;;;;;;0.70;0.70;;;5.10;99.90;;;;;;5039323;28;20238;-74
2022/01/19 08:39:48;;;;;;;0.70;0.70;;;5.10;99.90;;;;;;5037543;28;20217;-74
2022/01/19 08:42:14;;;;;;;0.70;0.70;;;5.10;99.90;;;;;;5040355;28;20213;-73
2022/01/19 08:44:40;;;;;;;1.10;1.10;;;5.20;99.90;;;;;;5035721;28;20220;-74
2022/01/19 08:47:07;;;;;;;1.45;1.35;;;5.20;99.90;;;;;;5031000;28;20670;-74
2022/01/19 08:49:34;;;;;;;0.70;0.70;;;5.20;99.90;;;;;;5034099;28;20198;-74
2022/01/19 08:52:02;;;;;;;0.80;0.80;;;5.10;99.90;;;;;;5042216;28;20712;-74
2022/01/19 08:54:28;;;;;;;0.70;0.70;;;5.20;99.90;;;;;;5037795;28;20745;-73
2022/01/19 08:56:54;;;;;;;0.73;0.73;;;5.30;99.90;;;;;;5043014;28;20210;-74
2022/01/19 08:59:20;;;;;;;0.70;0.70;;;5.30;99.90;;;;;;5038676;28;20221;-73
2022/01/19 09:01:46;;;;;;;0.65;0.65;;;5.20;99.90;;;;;;5040900;28;20439;-74
2022/01/19 09:04:12;;;;;;;0.80;0.80;;;5.10;99.90;;;;;;5023325;28;20197;-74
2022/01/19 09:06:37;;;;;;;0.63;0.63;;;5.10;99.90;;;;;;5046289;28;20243;-77
2022/01/19 09:09:03;;;;;;;0.98;0.98;;;5.10;99.90;;;;;;5036197;28;20194;-75
2022/01/19 09:11:29;;;;;;;0.70;0.70;;;5.10;99.90;;;;;;5048825;28;20241;-74
2022/01/19 09:13:55;;;;;;;0.65;0.65;;;5.10;99.90;;;;;;5033387;28;20202;-74
2022/01/19 09:16:20;;;;;;;7.97;1.35;;;5.20;99.90;;;;;;5033045;28;20220;-74
2022/01/19 09:18:46;;;;;;;2.38;1.85;;;5.20;99.90;;;;;;5033277;28;20320;-74
2022/01/19 09:21:12;;;;;;;0.70;0.70;;;5.20;99.90;;;;;;5049700;28;20232;-75
2022/01/19 09:23:38;;;;;;;0.85;0.85;;;5.10;99.90;;;;;;5033080;28;20677;-74
2022/01/19 09:26:06;;;;;;;0.90;0.90;;;5.20;99.90;;;;;;5033535;28;20265;-74
2022/01/19 09:28:32;;;;;;;0.70;0.70;;;5.20;99.90;;;;;;5032703;28;20721;-74
2022/01/19 09:31:01;;;;;;;0.73;0.73;;;5.30;99.90;;;;;;5050546;28;20288;-74
2022/01/19 09:33:30;;;;;;;0.70;0.70;;;5.40;99.90;;;;;;5016412;28;20657;-74
2022/01/19 09:38:38;;;;;;;1.48;1.38;;;5.40;99.90;;;;;;5049728;28;20684;-74
2022/01/19 09:41:07;;;;;;;0.73;0.73;;;5.50;99.90;;;;;;5048159;28;20217;-74
2022/01/19 09:43:35;;;;;;;0.70;0.70;;;5.40;99.90;;;;;;5048317;28;20612;-74
2022/01/19 09:46:01;;;;;;;1.33;1.23;;;5.50;99.90;;;;;;5047605;28;20296;-74
2022/01/19 09:48:28;;;;;;;0.70;0.70;;;5.60;99.90;;;;;;5035887;28;20218;-74
2022/01/19 09:50:56;;;;;;;1.38;1.27;;;5.60;99.90;;;;;;5047386;28;20209;-74
2022/01/19 09:53:21;;;;;;;0.80;0.80;;;5.70;99.90;;;;;;5049751;28;20205;-75
2022/01/19 09:55:48;;;;;;;0.70;0.70;;;5.60;99.90;;;;;;5046243;28;20206;-74
2022/01/19 09:58:16;;;;;;;0.75;0.75;;;5.60;99.90;;;;;;5041813;28;20216;-74
2022/01/19 10:00:41;;;;;;;0.90;0.90;;;5.60;99.90;;;;;;5039541;28;20684;-74
2022/01/19 10:03:23;;;;;;;1.20;1.20;;;5.50;99.90;;;;;;5043331;28;20212;-74
2022/01/19 10:06:07;;;;;;;0.70;0.70;;;5.50;99.90;;;;;;5038113;28;20264;-74
2022/01/19 10:08:33;;;;;;;0.77;0.77;;;5.60;99.90;;;;;;5043112;28;20209;-74
2022/01/19 10:11:25;;;;;;;0.70;0.70;;;5.60;99.90;;;;;;5048611;28;20267;-74
2022/01/19 10:17:06;;;;;;;0.70;0.70;;;5.50;99.90;;;;;;5049093;28;20212;-74
2022/01/19 10:19:49;;;;;;;0.60;0.60;;;5.50;99.90;;;;;;5050103;28;20197;-74
2022/01/19 10:22:25;;;;;;;0.60;0.60;;;5.50;99.90;;;;;;5015262;28;20228;-74
2022/01/19 10:25:00;;;;;;;0.70;0.70;;;5.50;99.90;;;;;;5015709;28;20259;-74
2022/01/19 10:27:35;;;;;;;0.70;0.70;;;5.40;99.90;;;;;;5015791;28;20258;-74
2022/01/19 10:30:03;;;;;;;0.70;0.70;;;5.40;99.90;;;;;;5015853;28;20196;-75
2022/01/19 10:32:33;;;;;;;1.13;1.02;;;5.40;99.90;;;;;;5015728;28;20199;-74
2022/01/19 10:35:16;;;;;;;0.60;0.60;;;5.30;99.90;;;;;;5049788;28;20202;-74
2022/01/19 10:37:42;;;;;;;1.60;1.50;;;5.40;99.90;;;;;;5016878;28;20229;-74
2022/01/19 10:40:14;;;;;;;1.15;1.00;;;5.40;99.90;;;;;;5048272;28;20388;-74
2022/01/19 10:42:39;;;;;;;0.70;0.70;;;5.40;99.90;;;;;;5015889;28;20685;-74
2022/01/19 10:45:08;;;;;;;0.60;0.60;;;5.40;99.90;;;;;;5049718;28;20232;-74
2022/01/19 10:47:58;;;;;;;0.65;0.65;;;5.40;99.90;;;;;;5048526;28;20209;-74
2022/01/19 10:50:28;;;;;;;0.60;0.60;;;5.40;99.90;;;;;;5015158;28;20214;-74
2022/01/19 10:52:55;;;;;;;1.98;1.35;;;5.30;99.90;;;;;;5049416;28;20198;-74
2022/01/19 10:55:33;;;;;;;0.63;0.63;;;5.30;99.90;;;;;;5049025;28;20239;-74
2022/01/19 10:58:00;;;;;;;0.70;0.70;;;5.20;99.90;;;;;;5014116;28;20198;-74
2022/01/19 11:00:28;;;;;;;0.60;0.60;;;5.10;99.90;;;;;;5063801;28;20221;-74
2022/01/19 11:03:20;;;;;;;0.70;0.70;;;5.20;99.90;;;;;;5047933;28;20695;-74
2022/01/19 11:05:55;;;;;;;0.70;0.70;;;5.40;99.90;;;;;;5014295;28;20198;-74
2022/01/19 11:08:22;;;;;;;0.80;0.80;;;5.40;99.90;;;;;;5015439;28;20198;-74
2022/01/19 11:10:52;;;;;;;0.70;0.70;;;5.40;99.90;;;;;;5049868;28;20216;-74
2022/01/19 11:13:56;;;;;;;0.70;0.70;;;5.50;99.90;;;;;;5048393;28;20201;-74
2022/01/19 11:16:12;;;;;;;1.02;1.00;;;5.60;99.90;;;;;;5015474;28;20210;-75
2022/01/19 11:18:39;;;;;;;0.80;0.80;;;5.50;99.90;;;;;;5046427;28;20210;-74
2022/01/19 11:21:09;;;;;;;0.70;0.70;;;5.50;99.90;;;;;;5029620;28;20211;-74
2022/01/19 11:23:56;;;;;;;0.80;0.80;;;5.70;99.90;;;;;;5048867;28;20217;-74
2022/01/19 11:26:28;;;;;;;0.70;0.70;;;5.70;99.90;;;;;;5014283;28;20697;-75
2022/01/19 11:28:53;;;;;;;0.60;0.60;;;5.70;99.90;;;;;;5047972;28;20274;-75
2022/01/19 11:31:22;;;;;;;0.60;0.60;;;5.60;99.90;;;;;;5047829;28;20335;-75
2022/01/19 11:33:53;;;;;;;0.80;0.80;;;5.60;99.90;;;;;;5046020;28;20243;-73
2022/01/19 11:36:25;;;;;;;0.63;0.63;;;5.80;99.90;;;;;;5049000;28;20288;-75
2022/01/19 11:38:55;;;;;;;0.70;0.70;;;5.80;99.90;;;;;;5047648;28;20202;-74
2022/01/19 11:41:35;;;;;;;1.20;1.10;;;5.70;99.90;;;;;;5047867;28;20209;-75
2022/01/19 11:44:01;;;;;;;0.70;0.70;;;5.80;99.90;;;;;;5047311;28;20210;-75
2022/01/19 11:46:31;;;;;;;0.50;0.50;;;5.70;99.90;;;;;;5045863;28;20300;-75
2022/01/19 11:48:59;;;;;;;0.70;0.70;;;5.80;99.90;;;;;;5048136;28;20201;-75
2022/01/19 11:51:27;;;;;;;0.70;0.70;;;5.80;99.90;;;;;;5046006;28;20228;-74
2022/01/19 11:54:07;;;;;;;0.70;0.70;;;5.80;99.90;;;;;;5044314;28;20207;-75
2022/01/19 11:56:58;;;;;;;1.10;1.02;;;5.80;99.90;;;;;;5036160;28;20633;-75
2022/01/19 11:59:27;;;;;;;0.80;0.80;;;5.80;99.90;;;;;;5047647;28;20237;-76
2022/01/19 12:01:53;;;;;;;0.52;0.52;;;5.80;99.90;;;;;;5047800;28;20217;-75
2022/01/19 12:04:21;;;;;;;0.70;0.70;;;5.70;99.90;;;;;;5047178;28;20198;-75
2022/01/19 12:06:48;;;;;;;0.80;0.80;;;5.70;99.90;;;;;;5047439;28;20208;-76
2022/01/19 12:09:16;;;;;;;0.88;0.88;;;5.70;99.90;;;;;;5046523;28;20684;-76
2022/01/19 12:11:53;;;;;;;0.70;0.70;;;5.70;99.90;;;;;;5033502;28;20374;-75
2022/01/19 12:14:22;;;;;;;0.70;0.70;;;5.80;99.90;;;;;;5043131;28;20216;-76
2022/01/19 12:19:28;;;;;;;0.60;0.60;;;5.70;99.90;;;;;;5046057;28;20741;-75
2022/01/19 12:22:20;;;;;;;0.52;0.52;;;5.70;99.90;;;;;;5047319;28;20229;-75
2022/01/19 12:24:57;;;;;;;0.50;0.50;;;5.70;99.90;;;;;;5045306;28;20221;-75
2022/01/19 12:27:30;;;;;;;0.68;0.68;;;5.70;99.90;;;;;;5046354;28;20193;-75
2022/01/19 12:30:07;;;;;;;3.13;1.60;;;5.80;99.90;;;;;;5047163;28;20190;-75
2022/01/19 12:32:35;;;;;;;0.95;0.95;;;5.70;99.90;;;;;;5050880;28;20621;-75
2022/01/19 12:35:04;;;;;;;0.60;0.60;;;5.60;99.90;;;;;;5050480;28;20669;-75
2022/01/19 12:37:32;;;;;;;0.80;0.80;;;5.60;99.90;;;;;;5048643;28;20235;-74
2022/01/19 12:40:21;;;;;;;0.65;0.65;;;5.60;99.90;;;;;;5050330;28;20213;-75
2022/01/19 12:42:54;;;;;;;1.10;1.10;;;5.60;99.90;;;;;;5042651;28;20328;-75
2022/01/19 12:45:26;;;;;;;0.73;0.73;;;5.60;99.90;;;;;;5050970;28;20683;-75
2022/01/19 12:47:57;;;;;;;0.80;0.80;;;5.60;99.90;;;;;;5047592;28;20205;-75
2022/01/19 12:50:28;;;;;;;0.63;0.63;;;5.50;99.90;;;;;;5051018;28;20292;-74
2022/01/19 12:52:57;;;;;;;0.70;0.70;;;5.50;99.90;;;;;;5049975;28;20233;-76
2022/01/19 12:55:28;;;;;;;0.80;0.80;;;5.50;99.90;;;;;;5035516;28;20281;-75
2022/01/19 12:57:55;;;;;;;9.18;1.70;;;5.50;99.90;;;;;;5047665;28;20197;-75
2022/01/19 13:00:25;;;;;;;0.80;0.80;;;5.50;99.90;;;;;;5050443;28;20264;-75
2022/01/19 13:02:51;;;;;;;0.73;0.73;;;5.40;99.90;;;;;;5050803;28;20213;-75
2022/01/19 13:05:20;;;;;;;0.70;0.70;;;5.40;99.90;;;;;;5049770;28;20197;-76
2022/01/19 13:07:56;;;;;;;0.80;0.80;;;5.50;99.90;;;;;;5049942;28;20660;-75
2022/01/19 13:10:38;;;;;;;1.33;1.23;;;5.50;99.90;;;;;;5049569;28;20204;-77
2022/01/19 13:13:12;;;;;;;0.90;0.90;;;5.50;99.90;;;;;;5049871;28;20575;-74
2022/01/19 13:15:50;;;;;;;0.70;0.70;;;5.40;99.90;;;;;;5047716;28;20268;-73
2022/01/19 13:18:43;;;;;;;0.57;0.57;;;5.40;99.90;;;;;;5048216;28;20201;-76
2022/01/19 13:21:15;;;;;;;0.90;0.90;;;5.40;99.90;;;;;;5050902;28;20206;-74
2022/01/19 13:24:00;;;;;;;0.80;0.80;;;5.50;99.90;;;;;;5049424;28;20217;-75
2022/01/19 13:26:42;;;;;;;0.90;0.90;;;5.50;99.90;;;;;;5045939;28;20209;-75
2022/01/19 13:29:16;;;;;;;0.70;0.70;;;5.50;99.90;;;;;;5050758;28;20197;-74
2022/01/19 13:31:56;;;;;;;0.70;0.70;;;5.50;99.90;;;;;;5051689;28;20212;-75
2022/01/19 13:34:22;;;;;;;0.70;0.70;;;5.40;99.90;;;;;;5049710;28;20314;-76
2022/01/19 13:36:54;;;;;;;0.70;0.70;;;5.40;99.90;;;;;;5050986;28;20571;-75
2022/01/19 13:39:22;;;;;;;0.65;0.65;;;5.30;99.90;;;;;;5050908;28;20339;-75
2022/01/19 13:41:50;;;;;;;0.60;0.60;;;5.30;99.90;;;;;;5047984;28;20521;-75
2022/01/19 13:44:22;;;;;;;0.70;0.70;;;5.30;99.90;;;;;;5046258;28;20208;-79
2022/01/19 13:46:47;;;;;;;0.93;0.85;;;5.10;99.90;;;;;;5048921;28;20201;-81
2022/01/19 13:49:13;;;;;;;0.60;0.60;;;5.10;99.90;;;;;;5049045;28;20347;-78
2022/01/19 13:51:43;;;;;;;0.80;0.80;;;5.00;99.90;;;;;;5018710;28;20313;-76
2022/01/19 13:54:09;;;;;;;0.80;0.80;;;5.00;99.90;;;;;;5045714;28;20355;-77
2022/01/19 13:56:40;;;;;;;0.70;0.70;;;4.90;99.90;;;;;;5039666;28;20217;-75
2022/01/19 13:59:08;;;;;;;0.98;0.98;;;4.80;99.90;;;;;;5046587;28;20205;-77
2022/01/19 14:01:50;;;;;;;0.77;0.77;;;4.80;99.90;;;;;;5048289;28;20230;-78
2022/01/19 14:04:15;;;;;;;0.70;0.70;;;4.80;99.90;;;;;;5049813;28;20205;-76
2022/01/19 14:06:48;;;;;;;0.80;0.80;;;4.70;99.90;;;;;;5048540;28;20197;-76
2022/01/19 14:09:21;;;;;;;0.65;0.65;;;4.70;99.90;;;;;;5047339;28;20205;-77
2022/01/19 14:11:49;;;;;;;0.85;0.85;;;4.70;99.90;;;;;;5046214;28;20296;-75
2022/01/19 14:14:21;;;;;;;0.70;0.70;;;4.70;99.90;;;;;;5047226;28;20224;-75
2022/01/19 14:16:49;;;;;;;0.75;0.75;;;4.60;99.90;;;;;;5049571;28;20236;-77
2022/01/19 14:19:20;;;;;;;0.70;0.70;;;4.60;99.90;;;;;;5048509;28;20571;-75
2022/01/19 14:22:05;;;;;;;0.68;0.68;;;4.50;99.90;;;;;;5048227;28;20300;-76
2022/01/19 14:24:54;;;;;;;0.70;0.70;;;4.50;99.90;;;;;;5038303;28;20294;-75
2022/01/19 14:27:23;;;;;;;0.70;0.70;;;4.50;99.90;;;;;;5048148;28;20202;-75
2022/01/19 14:30:09;;;;;;;0.70;0.70;;;4.50;99.90;;;;;;5046889;28;20205;-77